FW6400 Weather Reports


Display with metric or nautical units.
time (UTC)temp
F
wind
direction
speed
MPH
gust
MPH
rain 1hr
in
rain 24hr
in
rain mn
in
humidity
%
barometer
mb
20210622221519 74 0.0 1.0 0.14 0.38 0.38 97 1012.2
20210622220104 74 0.0 2.0 0.19 0.37 0.37 97 1012.1
20210622214611 74 1.0 4.0 0.19 0.37 0.37 96 1012.1
20210622213033 74 3.0 6.0 0.16 0.34 0.34 96 1012.1
20210622211653 74 2.0 14.0 0.06 0.24 0.24 94 1012.1
20210622210030 77 4.0 13.0 0.00 0.18 0.18 91 1011.7
20210622204559 78 8.0 14.0 0.00 0.18 0.18 87 1011.5
20210622203003 78 3.0 11.0 0.00 0.18 0.18 90 1011.4
20210622201557 78 4.0 11.0 0.01 0.18 0.18 91 1011.5
20210622200141 77 5.0 11.0 0.02 0.18 0.18 90 1011.5
20210622194521 76 5.0 10.0 0.03 0.18 0.18 91 1011.4
20210622193134 77 6.0 12.0 0.03 0.18 0.18 92 1011.3
20210622191623 77 0.0 4.0 0.02 0.17 0.17 92 1010.9
20210622190024 77 3.0 9.0 0.01 0.16 0.16 89 1011.4
20210622184615 78 3.0 10.0 0.00 0.15 0.15 87 1011.7
20210622180011 82 4.0 20.0 0.00 0.15 0.15 79 1011.8
20210622174622 82 10.0 19.0 0.00 0.15 0.15 80 1011.9
20210622171527 80 3.0 9.0 0.00 0.15 0.15 87 1012.1
20210622170136 80 4.0 13.0 0.00 0.15 0.15 85 1012.3
20210622164833 79 5.0 12.0 0.12 0.15 0.15 92 1012.3
20210622163020 76 2.0 8.0 0.12 0.15 0.15 95 1012.4
20210622161548 76 1.0 6.0 0.12 0.15 0.15 94 1012.6
20210622160018 76 1.0 13.0 0.12 0.15 0.15 91 1012.2
20210622154552 79 4.0 9.0 0.00 0.03 0.03 89 1012.0
20210622153109 81 5.0 11.0 0.00 0.03 0.03 86 1012.1
20210622151505 80 5.0 12.0 0.00 0.03 0.03 87 1012.3
20210622150104 80 6.0 12.0 0.00 0.03 0.03 87 1012.4
20210622144721 79 6.0 16.0 0.00 0.03 0.03 87 1012.6
20210622143238 79 6.0 14.0 0.00 0.03 0.03 86 1012.7
20210622141510 78 4.0 9.0 0.00 0.03 0.03 87 1012.8
20210622140043 77 4.0 10.0 0.00 0.03 0.03 88 1012.9
20210622133028 76 4.0 15.0 0.00 0.03 0.03 87 1012.8
20210622131602 76 6.0 15.0 0.00 0.03 0.03 88 1012.7
20210622130148 76 4.0 10.0 0.00 0.03 0.03 90 1012.8
20210622124533 75 4.0 8.0 0.01 0.03 0.03 92 1012.5
20210622123038 74 4.0 9.0 0.02 0.03 0.03 93 1012.3
20210622121624 73 269 4.0 8.0 0.03 0.03 0.03 94 1012.3
20210622120006 73 4.0 8.0 0.03 0.03 0.03 94 1012.3
20210622114535 74 5.0 13.0 0.02 0.02 0.02 92 1012.2
20210622113201 76 5.0 11.0 0.01 0.01 0.01 90 1012.3
20210622111537 77 6.0 10.0 0.00 0.00 0.00 87 1011.9
20210622110209 78 4.0 10.0 0.00 0.00 0.00 83 1011.7
20210622104515 78 6.0 10.0 0.00 0.00 0.00 83 1011.5
20210622103221 78 6.0 11.0 0.00 0.00 0.00 84 1011.4
20210622101506 78 4.0 12.0 0.00 0.00 0.00 86 1011.2
20210622100105 78 4.0 9.0 0.00 0.00 0.00 87 1011.0
20210622094633 78 3.0 9.0 0.00 0.00 0.00 88 1010.9
20210622093055 78 3.0 7.0 0.00 0.00 0.00 89 1010.8
20210622091618 78 3.0 8.0 0.00 0.00 0.00 89 1010.8
20210622084608 78 5.0 10.0 0.00 0.00 0.00 90 1010.8
20210622083118 78 4.0 11.0 0.00 0.00 0.00 91 1010.8
20210622081511 79 4.0 9.0 0.00 0.00 0.00 91 1010.9
20210622080042 79 3.0 9.0 0.00 0.02 0.00 91 1010.9
20210622074719 79 4.0 10.0 0.00 0.02 0.00 90 1010.9
20210622073025 79 4.0 9.0 0.00 0.02 0.00 90 1010.9
20210622071546 79 4.0 9.0 0.00 0.02 0.00 89 1010.9
20210622070359 79 4.0 9.0 0.00 0.12 0.00 91 1010.9
20210622064516 79 4.0 9.0 0.00 0.12 0.00 92 1011.0
20210622063055 79 6.0 9.0 0.00 0.12 0.00 93 1011.1
20210622061649 79 3.0 6.0 0.00 0.12 0.00 93 1011.1
20210622060024 79 1.0 5.0 0.00 0.18 0.00 92 1011.4
20210622054547 79 2.0 5.0 0.00 0.18 0.00 93 1011.5
20210622053203 79 2.0 6.0 0.00 0.18 0.00 93 1011.7
20210622051538 79 2.0 7.0 0.00 0.18 0.00 93 1011.7
20210622050158 79 4.0 8.0 0.00 0.22 0.00 93 1011.6
20210622044543 79 4.0 8.0 0.00 0.22 0.00 93 1011.6
20210622043115 79 2.0 7.0 0.00 0.22 0.00 93 1011.8
20210622040050 79 4.0 10.0 0.00 0.22 0.22 92 1011.6
20210622034909 79 3.0 8.0 0.00 0.22 0.22 92 1011.6
20210622033014 79 5.0 9.0 0.00 0.22 0.22 91 1011.7
20210622031551 79 5.0 8.0 0.00 0.22 0.22 91 1011.4
20210622030116 79 4.0 7.0 0.00 0.22 0.22 90 1011.5
20210622024541 80 1.0 5.0 0.00 0.22 0.22 89 1011.4
20210622023124 80 3.0 8.0 0.00 0.22 0.22 89 1011.5
20210622021642 80 2.0 5.0 0.00 0.22 0.22 88 1011.3
20210622020050 80 2.0 5.0 0.00 0.22 0.22 87 1011.4
20210622014642 80 2.0 4.0 0.00 0.22 0.22 88 1011.2
20210622011535 80 3.0 7.0 0.00 0.22 0.22 89 1010.8
20210622010217 80 3.0 9.0 0.00 0.22 0.22 89 1010.5
20210622003026 81 3.0 10.0 0.00 0.22 0.22 88 1010.1
20210622001700 81 3.0 8.0 0.00 0.22 0.22 88 1010.1
20210622000001 81 3.0 6.0 0.00 0.22 0.22 88 1009.9
20210621234529 81 4.0 9.0 0.00 0.22 0.22 88 1010.0
20210621233112 81 6.0 10.0 0.00 0.22 0.22 88 1010.2
20210621231529 82 4.0 12.0 0.00 0.22 0.22 88 1010.3
20210621230100 82 6.0 12.0 0.00 0.22 0.22 88 1010.2
20210621224503 84 6.0 15.0 0.00 0.22 0.22 84 1010.3
20210621223036 84 4.0 10.0 0.00 0.22 0.22 84 1009.8